Главная страница
METAR-TAF:

METAR-TAF

Аэропорты :

Самсун, Турция

широта: 41-15-15N, долгота: 036-34-03E, высота над уровнем моря: 5 м

Текущие метеонаблюдения

Эта сводка был подготовлена 22 минут назад, в 00:50 UTC
Ветер 2 Узел от восточно-юго-восточный
Температура 18°C
Влажность 94%
Давление 1020 hPa
Видимость 10 км и более
небольшая облачность на высоте 1500 фута
Отдельные облака на высоте 3600 фута
Рассеянная облачность на высоте 10000 фута

METAR: LTFH 160050Z 12002KT 9999 FEW015 SCT036 BKN100 18/17 Q1020 NOSIG

Время: 04:12 (01:12 UTC)

Прогноз

Эта сводка был подготовлена 2 часа и 32 минут назад, в 22:40 UTC
Прогноз действительный с 16-го 00 UTC до 16-го 09 UTC
Ветер 2 Узел переменных направлений
Видимость 10 км и более
небольшая облачность на высоте 1500 фута
Отдельные облака на высоте 3600 фута
Рассеянная облачность на высоте 10000 фута

TAF: LTFH 152240Z 1600/1609 VRB02KT 9999 FEW015 SCT036 BKN100

Метеонаблюдения и прогнозы для более 4000 аэропортов (сводки METAR и TAF).

Имеющиеся станции представлены на карте желтыми и красными точками.

Чтобы увидеть название станции, наведите на нее мышь.

Затем щелкните, чтобы увидеть метеонаблюдения и метеопрогнозы.

Управление картой: чтобы увеличить масштаб, щелкните зеленые кнопки с черным крестиком; чтобы уменьшить масштаб, щелкните зеленую кнопку с тире; для просмотра соседних карт щелкайте зеленые стрелки.


METAR-TAF: